sensor_id;sensor_type;location;lat;lon;timestamp;P1;durP1;ratioP1;P2;durP2;ratioP2
39958;SDS011;25639;53.634;9.880;2023-03-01T00:00:34;32.47;;;14.95;;
39958;SDS011;25639;53.634;9.880;2023-03-01T00:03:00;32.08;;;15.10;;
39958;SDS011;25639;53.634;9.880;2023-03-01T00:05:25;33.20;;;15.00;;
39958;SDS011;25639;53.634;9.880;2023-03-01T00:07:54;33.90;;;14.02;;
39958;SDS011;25639;53.634;9.880;2023-03-01T00:10:19;33.88;;;14.38;;
39958;SDS011;25639;53.634;9.880;2023-03-01T00:12:44;29.05;;;13.63;;
39958;SDS011;25639;53.634;9.880;2023-03-01T00:15:10;28.63;;;14.00;;
39958;SDS011;25639;53.634;9.880;2023-03-01T00:17:36;34.00;;;14.15;;
39958;SDS011;25639;53.634;9.880;2023-03-01T00:20:01;30.35;;;14.07;;
39958;SDS011;25639;53.634;9.880;2023-03-01T00:22:27;32.40;;;14.32;;
39958;SDS011;25639;53.634;9.880;2023-03-01T00:24:53;30.45;;;14.57;;
39958;SDS011;25639;53.634;9.880;2023-03-01T00:27:18;31.23;;;14.07;;
39958;SDS011;25639;53.634;9.880;2023-03-01T00:29:45;29.98;;;13.93;;
39958;SDS011;25639;53.634;9.880;2023-03-01T00:32:10;30.08;;;14.32;;
39958;SDS011;25639;53.634;9.880;2023-03-01T00:34:35;27.25;;;12.80;;
39958;SDS011;25639;53.634;9.880;2023-03-01T00:37:00;26.98;;;12.57;;
39958;SDS011;25639;53.634;9.880;2023-03-01T00:39:30;27.38;;;12.93;;
39958;SDS011;25639;53.634;9.880;2023-03-01T00:41:55;26.50;;;13.43;;
39958;SDS011;25639;53.634;9.880;2023-03-01T00:44:21;28.40;;;13.20;;
39958;SDS011;25639;53.634;9.880;2023-03-01T00:46:46;27.80;;;14.23;;
39958;SDS011;25639;53.634;9.880;2023-03-01T00:49:11;26.60;;;13.07;;
39958;SDS011;25639;53.634;9.880;2023-03-01T00:51:38;27.77;;;12.25;;
39958;SDS011;25639;53.634;9.880;2023-03-01T00:54:07;26.02;;;13.20;;
39958;SDS011;25639;53.634;9.880;2023-03-01T00:56:33;29.42;;;12.27;;
39958;SDS011;25639;53.634;9.880;2023-03-01T00:58:59;25.95;;;12.85;;
39958;SDS011;25639;53.634;9.880;2023-03-01T01:01:25;30.08;;;13.20;;
39958;SDS011;25639;53.634;9.880;2023-03-01T01:03:55;28.92;;;13.13;;
39958;SDS011;25639;53.634;9.880;2023-03-01T01:06:22;27.10;;;12.13;;
39958;SDS011;25639;53.634;9.880;2023-03-01T01:08:49;25.13;;;11.55;;
39958;SDS011;25639;53.634;9.880;2023-03-01T01:11:16;25.77;;;12.45;;
39958;SDS011;25639;53.634;9.880;2023-03-01T01:13:41;26.90;;;13.02;;
39958;SDS011;25639;53.634;9.880;2023-03-01T01:16:08;26.05;;;13.27;;
39958;SDS011;25639;53.634;9.880;2023-03-01T01:18:34;24.73;;;12.57;;
39958;SDS011;25639;53.634;9.880;2023-03-01T01:21:03;27.75;;;12.68;;
39958;SDS011;25639;53.634;9.880;2023-03-01T01:23:33;27.30;;;12.90;;
39958;SDS011;25639;53.634;9.880;2023-03-01T01:26:03;28.67;;;13.38;;
39958;SDS011;25639;53.634;9.880;2023-03-01T01:28:38;32.97;;;13.70;;
39958;SDS011;25639;53.634;9.880;2023-03-01T01:31:04;29.13;;;13.60;;
39958;SDS011;25639;53.634;9.880;2023-03-01T01:33:29;26.13;;;12.50;;
39958;SDS011;25639;53.634;9.880;2023-03-01T01:35:55;25.30;;;12.20;;
39958;SDS011;25639;53.634;9.880;2023-03-01T01:38:20;28.55;;;12.75;;
39958;SDS011;25639;53.634;9.880;2023-03-01T01:40:46;29.13;;;13.02;;
39958;SDS011;25639;53.634;9.880;2023-03-01T01:43:20;26.20;;;12.77;;
39958;SDS011;25639;53.634;9.880;2023-03-01T01:45:45;27.23;;;13.70;;
39958;SDS011;25639;53.634;9.880;2023-03-01T01:48:12;29.67;;;13.60;;
39958;SDS011;25639;53.634;9.880;2023-03-01T01:50:42;23.95;;;11.30;;
39958;SDS011;25639;53.634;9.880;2023-03-01T01:53:11;20.95;;;11.27;;
39958;SDS011;25639;53.634;9.880;2023-03-01T01:55:41;22.60;;;10.95;;
39958;SDS011;25639;53.634;9.880;2023-03-01T01:58:11;25.63;;;12.55;;
39958;SDS011;25639;53.634;9.880;2023-03-01T02:00:38;26.88;;;12.43;;
39958;SDS011;25639;53.634;9.880;2023-03-01T02:03:05;26.67;;;12.65;;
39958;SDS011;25639;53.634;9.880;2023-03-01T02:05:36;26.60;;;12.25;;
39958;SDS011;25639;53.634;9.880;2023-03-01T02:08:23;23.85;;;11.73;;
39958;SDS011;25639;53.634;9.880;2023-03-01T02:10:50;26.80;;;12.25;;
39958;SDS011;25639;53.634;9.880;2023-03-01T02:13:18;25.38;;;11.65;;
39958;SDS011;25639;53.634;9.880;2023-03-01T02:15:43;24.33;;;11.00;;
39958;SDS011;25639;53.634;9.880;2023-03-01T02:18:10;25.67;;;11.70;;
39958;SDS011;25639;53.634;9.880;2023-03-01T02:20:40;22.20;;;11.02;;
39958;SDS011;25639;53.634;9.880;2023-03-01T02:23:17;28.85;;;11.05;;
39958;SDS011;25639;53.634;9.880;2023-03-01T02:28:30;27.13;;;11.90;;
39958;SDS011;25639;53.634;9.880;2023-03-01T02:30:57;24.73;;;11.43;;
39958;SDS011;25639;53.634;9.880;2023-03-01T02:33:41;26.58;;;11.63;;
39958;SDS011;25639;53.634;9.880;2023-03-01T02:36:10;21.90;;;10.85;;
39958;SDS011;25639;53.634;9.880;2023-03-01T02:38:41;22.08;;;10.35;;
39958;SDS011;25639;53.634;9.880;2023-03-01T02:41:07;25.70;;;11.52;;
39958;SDS011;25639;53.634;9.880;2023-03-01T02:43:33;20.52;;;10.45;;
39958;SDS011;25639;53.634;9.880;2023-03-01T02:46:13;26.42;;;11.43;;
39958;SDS011;25639;53.634;9.880;2023-03-01T02:48:45;21.73;;;11.07;;
39958;SDS011;25639;53.634;9.880;2023-03-01T02:54:06;27.70;;;11.48;;
39958;SDS011;25639;53.634;9.880;2023-03-01T02:56:37;32.00;;;11.82;;
39958;SDS011;25639;53.634;9.880;2023-03-01T02:59:03;24.77;;;10.48;;
39958;SDS011;25639;53.634;9.880;2023-03-01T03:01:29;22.05;;;10.45;;
39958;SDS011;25639;53.634;9.880;2023-03-01T03:04:04;23.15;;;11.23;;
39958;SDS011;25639;53.634;9.880;2023-03-01T03:06:34;22.33;;;11.18;;
39958;SDS011;25639;53.634;9.880;2023-03-01T03:09:00;22.38;;;11.02;;
39958;SDS011;25639;53.634;9.880;2023-03-01T03:11:26;25.13;;;10.63;;
39958;SDS011;25639;53.634;9.880;2023-03-01T03:13:51;24.63;;;11.38;;
39958;SDS011;25639;53.634;9.880;2023-03-01T03:16:17;20.98;;;10.10;;
39958;SDS011;25639;53.634;9.880;2023-03-01T03:18:43;24.15;;;10.20;;
39958;SDS011;25639;53.634;9.880;2023-03-01T03:21:09;21.45;;;9.95;;
39958;SDS011;25639;53.634;9.880;2023-03-01T03:23:36;23.67;;;11.18;;
39958;SDS011;25639;53.634;9.880;2023-03-01T03:26:01;21.35;;;10.23;;
39958;SDS011;25639;53.634;9.880;2023-03-01T03:28:29;23.98;;;11.10;;
39958;SDS011;25639;53.634;9.880;2023-03-01T03:30:55;21.73;;;10.43;;
39958;SDS011;25639;53.634;9.880;2023-03-01T03:33:20;21.27;;;10.88;;
39958;SDS011;25639;53.634;9.880;2023-03-01T03:35:47;21.05;;;10.05;;
39958;SDS011;25639;53.634;9.880;2023-03-01T03:38:15;21.88;;;11.00;;
39958;SDS011;25639;53.634;9.880;2023-03-01T03:43:12;23.73;;;10.07;;
39958;SDS011;25639;53.634;9.880;2023-03-01T03:45:46;26.08;;;10.48;;
39958;SDS011;25639;53.634;9.880;2023-03-01T03:48:13;21.02;;;10.43;;
39958;SDS011;25639;53.634;9.880;2023-03-01T03:50:39;24.27;;;10.02;;
39958;SDS011;25639;53.634;9.880;2023-03-01T03:53:09;25.48;;;10.73;;
39958;SDS011;25639;53.634;9.880;2023-03-01T03:55:36;21.75;;;10.50;;
39958;SDS011;25639;53.634;9.880;2023-03-01T03:58:04;24.38;;;11.07;;
39958;SDS011;25639;53.634;9.880;2023-03-01T04:00:37;22.30;;;11.02;;
39958;SDS011;25639;53.634;9.880;2023-03-01T04:03:04;27.05;;;10.77;;
39958;SDS011;25639;53.634;9.880;2023-03-01T04:05:30;21.60;;;10.70;;
39958;SDS011;25639;53.634;9.880;2023-03-01T04:07:55;23.83;;;11.15;;
39958;SDS011;25639;53.634;9.880;2023-03-01T04:10:28;23.85;;;11.18;;
39958;SDS011;25639;53.634;9.880;2023-03-01T04:12:55;25.15;;;10.40;;
39958;SDS011;25639;53.634;9.880;2023-03-01T04:15:21;26.73;;;11.35;;
39958;SDS011;25639;53.634;9.880;2023-03-01T04:17:49;24.77;;;11.23;;
39958;SDS011;25639;53.634;9.880;2023-03-01T04:20:17;18.90;;;10.02;;
39958;SDS011;25639;53.634;9.880;2023-03-01T04:22:52;24.15;;;10.18;;
39958;SDS011;25639;53.634;9.880;2023-03-01T04:25:22;21.90;;;9.77;;
39958;SDS011;25639;53.634;9.880;2023-03-01T04:27:48;18.65;;;8.90;;
39958;SDS011;25639;53.634;9.880;2023-03-01T04:30:13;21.45;;;10.20;;
39958;SDS011;25639;53.634;9.880;2023-03-01T04:32:38;21.00;;;9.23;;
39958;SDS011;25639;53.634;9.880;2023-03-01T04:35:04;22.50;;;9.85;;
39958;SDS011;25639;53.634;9.880;2023-03-01T04:37:29;18.05;;;8.77;;
39958;SDS011;25639;53.634;9.880;2023-03-01T04:39:54;20.55;;;9.13;;
39958;SDS011;25639;53.634;9.880;2023-03-01T04:42:20;20.10;;;9.25;;
39958;SDS011;25639;53.634;9.880;2023-03-01T04:44:45;21.25;;;9.70;;
39958;SDS011;25639;53.634;9.880;2023-03-01T04:47:11;17.38;;;8.82;;
39958;SDS011;25639;53.634;9.880;2023-03-01T04:49:37;18.45;;;8.27;;
39958;SDS011;25639;53.634;9.880;2023-03-01T04:52:03;16.25;;;7.82;;
39958;SDS011;25639;53.634;9.880;2023-03-01T04:54:33;17.77;;;8.63;;
39958;SDS011;25639;53.634;9.880;2023-03-01T04:56:59;20.85;;;8.70;;
39958;SDS011;25639;53.634;9.880;2023-03-01T04:59:25;18.95;;;8.73;;
39958;SDS011;25639;53.634;9.880;2023-03-01T05:01:51;18.42;;;8.60;;
39958;SDS011;25639;53.634;9.880;2023-03-01T05:04:20;19.20;;;9.38;;
39958;SDS011;25639;53.634;9.880;2023-03-01T05:06:46;15.77;;;8.77;;
39958;SDS011;25639;53.634;9.880;2023-03-01T05:09:11;16.65;;;8.48;;
39958;SDS011;25639;53.634;9.880;2023-03-01T05:11:36;20.90;;;9.32;;
39958;SDS011;25639;53.634;9.880;2023-03-01T05:14:03;17.23;;;9.50;;
39958;SDS011;25639;53.634;9.880;2023-03-01T05:16:28;20.10;;;9.10;;
39958;SDS011;25639;53.634;9.880;2023-03-01T05:18:55;19.85;;;9.95;;
39958;SDS011;25639;53.634;9.880;2023-03-01T05:21:21;19.50;;;8.63;;
39958;SDS011;25639;53.634;9.880;2023-03-01T05:23:47;20.05;;;9.60;;
39958;SDS011;25639;53.634;9.880;2023-03-01T05:26:12;17.02;;;8.90;;
39958;SDS011;25639;53.634;9.880;2023-03-01T05:28:38;19.15;;;8.70;;
39958;SDS011;25639;53.634;9.880;2023-03-01T05:31:04;17.70;;;9.15;;
39958;SDS011;25639;53.634;9.880;2023-03-01T05:33:34;20.15;;;8.95;;
39958;SDS011;25639;53.634;9.880;2023-03-01T05:36:01;21.85;;;8.70;;
39958;SDS011;25639;53.634;9.880;2023-03-01T05:38:27;17.08;;;8.63;;
39958;SDS011;25639;53.634;9.880;2023-03-01T05:40:52;17.77;;;8.32;;
39958;SDS011;25639;53.634;9.880;2023-03-01T05:43:17;18.80;;;8.98;;
39958;SDS011;25639;53.634;9.880;2023-03-01T05:45:43;16.58;;;8.75;;
39958;SDS011;25639;53.634;9.880;2023-03-01T05:48:10;17.08;;;8.55;;
39958;SDS011;25639;53.634;9.880;2023-03-01T05:50:38;15.00;;;7.93;;
39958;SDS011;25639;53.634;9.880;2023-03-01T05:53:12;19.13;;;9.57;;
39958;SDS011;25639;53.634;9.880;2023-03-01T05:55:39;15.57;;;7.80;;
39958;SDS011;25639;53.634;9.880;2023-03-01T05:58:07;16.42;;;8.27;;
39958;SDS011;25639;53.634;9.880;2023-03-01T06:00:34;15.02;;;7.50;;
39958;SDS011;25639;53.634;9.880;2023-03-01T06:03:00;17.20;;;8.55;;
39958;SDS011;25639;53.634;9.880;2023-03-01T06:05:27;15.77;;;8.35;;
39958;SDS011;25639;53.634;9.880;2023-03-01T06:07:53;19.17;;;8.43;;
39958;SDS011;25639;53.634;9.880;2023-03-01T06:10:19;14.27;;;7.47;;
39958;SDS011;25639;53.634;9.880;2023-03-01T06:12:45;16.90;;;7.95;;
39958;SDS011;25639;53.634;9.880;2023-03-01T06:15:12;16.75;;;7.60;;
39958;SDS011;25639;53.634;9.880;2023-03-01T06:17:40;17.73;;;8.05;;
39958;SDS011;25639;53.634;9.880;2023-03-01T06:20:17;14.95;;;7.63;;
39958;SDS011;25639;53.634;9.880;2023-03-01T06:22:47;17.73;;;7.45;;
39958;SDS011;25639;53.634;9.880;2023-03-01T06:25:15;19.33;;;7.40;;
39958;SDS011;25639;53.634;9.880;2023-03-01T06:27:44;14.30;;;7.70;;
39958;SDS011;25639;53.634;9.880;2023-03-01T06:30:11;17.13;;;8.00;;
39958;SDS011;25639;53.634;9.880;2023-03-01T06:32:39;17.13;;;8.02;;
39958;SDS011;25639;53.634;9.880;2023-03-01T06:35:08;19.50;;;9.23;;
39958;SDS011;25639;53.634;9.880;2023-03-01T06:37:37;14.73;;;7.68;;
39958;SDS011;25639;53.634;9.880;2023-03-01T06:40:04;16.13;;;7.43;;
39958;SDS011;25639;53.634;9.880;2023-03-01T06:42:33;17.70;;;7.47;;
39958;SDS011;25639;53.634;9.880;2023-03-01T06:44:59;16.20;;;7.45;;
39958;SDS011;25639;53.634;9.880;2023-03-01T06:47:24;16.80;;;7.82;;
39958;SDS011;25639;53.634;9.880;2023-03-01T06:49:50;21.27;;;9.55;;
39958;SDS011;25639;53.634;9.880;2023-03-01T06:52:15;18.73;;;9.52;;
39958;SDS011;25639;53.634;9.880;2023-03-01T06:54:40;20.85;;;9.27;;
39958;SDS011;25639;53.634;9.880;2023-03-01T06:57:05;18.55;;;8.63;;
39958;SDS011;25639;53.634;9.880;2023-03-01T06:59:31;16.73;;;7.80;;
39958;SDS011;25639;53.634;9.880;2023-03-01T07:01:56;17.27;;;8.65;;
39958;SDS011;25639;53.634;9.880;2023-03-01T07:04:21;16.52;;;8.02;;
39958;SDS011;25639;53.634;9.880;2023-03-01T07:06:50;20.42;;;8.18;;
39958;SDS011;25639;53.634;9.880;2023-03-01T07:09:20;18.42;;;8.48;;
39958;SDS011;25639;53.634;9.880;2023-03-01T07:11:49;18.75;;;8.07;;
39958;SDS011;25639;53.634;9.880;2023-03-01T07:14:14;15.35;;;7.40;;
39958;SDS011;25639;53.634;9.880;2023-03-01T07:16:40;15.52;;;8.05;;
39958;SDS011;25639;53.634;9.880;2023-03-01T07:19:05;13.45;;;7.18;;
39958;SDS011;25639;53.634;9.880;2023-03-01T07:21:30;15.23;;;7.30;;
39958;SDS011;25639;53.634;9.880;2023-03-01T07:23:56;16.65;;;7.13;;
39958;SDS011;25639;53.634;9.880;2023-03-01T07:26:21;16.70;;;7.28;;
39958;SDS011;25639;53.634;9.880;2023-03-01T07:28:47;16.17;;;7.22;;
39958;SDS011;25639;53.634;9.880;2023-03-01T07:31:12;15.15;;;6.65;;
39958;SDS011;25639;53.634;9.880;2023-03-01T07:33:37;17.45;;;7.18;;
39958;SDS011;25639;53.634;9.880;2023-03-01T07:36:03;13.40;;;7.45;;
39958;SDS011;25639;53.634;9.880;2023-03-01T07:38:29;19.27;;;7.25;;
39958;SDS011;25639;53.634;9.880;2023-03-01T07:40:58;13.98;;;7.32;;
39958;SDS011;25639;53.634;9.880;2023-03-01T07:43:25;14.10;;;7.60;;
39958;SDS011;25639;53.634;9.880;2023-03-01T07:45:51;14.57;;;8.10;;
39958;SDS011;25639;53.634;9.880;2023-03-01T07:48:16;16.13;;;8.32;;
39958;SDS011;25639;53.634;9.880;2023-03-01T07:50:42;15.63;;;8.18;;
39958;SDS011;25639;53.634;9.880;2023-03-01T07:53:08;23.60;;;9.13;;
39958;SDS011;25639;53.634;9.880;2023-03-01T07:55:33;19.50;;;9.52;;
39958;SDS011;25639;53.634;9.880;2023-03-01T07:57:59;20.33;;;10.40;;
39958;SDS011;25639;53.634;9.880;2023-03-01T08:00:24;18.90;;;9.88;;
39958;SDS011;25639;53.634;9.880;2023-03-01T08:02:49;22.30;;;11.68;;
39958;SDS011;25639;53.634;9.880;2023-03-01T08:05:15;20.83;;;11.32;;
39958;SDS011;25639;53.634;9.880;2023-03-01T08:07:40;20.60;;;10.85;;
39958;SDS011;25639;53.634;9.880;2023-03-01T08:10:05;22.90;;;10.85;;
39958;SDS011;25639;53.634;9.880;2023-03-01T08:12:31;21.05;;;10.32;;
39958;SDS011;25639;53.634;9.880;2023-03-01T08:14:56;20.63;;;10.27;;
39958;SDS011;25639;53.634;9.880;2023-03-01T08:17:22;20.25;;;10.02;;
39958;SDS011;25639;53.634;9.880;2023-03-01T08:19:47;23.65;;;10.43;;
39958;SDS011;25639;53.634;9.880;2023-03-01T08:22:12;21.38;;;10.40;;
39958;SDS011;25639;53.634;9.880;2023-03-01T08:24:38;24.33;;;10.32;;
39958;SDS011;25639;53.634;9.880;2023-03-01T08:27:03;22.17;;;11.45;;
39958;SDS011;25639;53.634;9.880;2023-03-01T08:29:30;20.80;;;10.43;;
39958;SDS011;25639;53.634;9.880;2023-03-01T08:31:56;19.40;;;9.82;;
39958;SDS011;25639;53.634;9.880;2023-03-01T08:34:21;24.73;;;10.85;;
39958;SDS011;25639;53.634;9.880;2023-03-01T08:36:47;19.73;;;11.05;;
39958;SDS011;25639;53.634;9.880;2023-03-01T08:39:13;21.08;;;11.18;;
39958;SDS011;25639;53.634;9.880;2023-03-01T08:41:40;23.95;;;12.15;;
39958;SDS011;25639;53.634;9.880;2023-03-01T08:44:06;25.23;;;12.35;;
39958;SDS011;25639;53.634;9.880;2023-03-01T08:46:33;22.63;;;12.82;;
39958;SDS011;25639;53.634;9.880;2023-03-01T08:49:03;22.95;;;13.02;;
39958;SDS011;25639;53.634;9.880;2023-03-01T08:51:32;24.15;;;12.55;;
39958;SDS011;25639;53.634;9.880;2023-03-01T08:54:01;25.42;;;12.55;;
39958;SDS011;25639;53.634;9.880;2023-03-01T08:56:30;25.00;;;13.65;;
39958;SDS011;25639;53.634;9.880;2023-03-01T08:58:56;27.20;;;13.57;;
39958;SDS011;25639;53.634;9.880;2023-03-01T09:01:21;23.67;;;12.18;;
39958;SDS011;25639;53.634;9.880;2023-03-01T09:03:46;24.83;;;12.35;;
39958;SDS011;25639;53.634;9.880;2023-03-01T09:06:12;22.67;;;12.30;;
39958;SDS011;25639;53.634;9.880;2023-03-01T09:08:40;23.98;;;13.90;;
39958;SDS011;25639;53.634;9.880;2023-03-01T09:11:08;21.65;;;12.00;;
39958;SDS011;25639;53.634;9.880;2023-03-01T09:13:35;25.08;;;12.80;;
39958;SDS011;25639;53.634;9.880;2023-03-01T09:16:01;25.02;;;13.05;;
39958;SDS011;25639;53.634;9.880;2023-03-01T09:18:28;25.38;;;13.10;;
39958;SDS011;25639;53.634;9.880;2023-03-01T09:21:00;21.40;;;11.80;;
39958;SDS011;25639;53.634;9.880;2023-03-01T09:23:26;28.92;;;13.55;;
39958;SDS011;25639;53.634;9.880;2023-03-01T09:25:52;24.05;;;12.32;;
39958;SDS011;25639;53.634;9.880;2023-03-01T09:28:17;24.73;;;12.85;;
39958;SDS011;25639;53.634;9.880;2023-03-01T09:30:42;26.67;;;13.35;;
39958;SDS011;25639;53.634;9.880;2023-03-01T09:33:08;32.00;;;14.88;;
39958;SDS011;25639;53.634;9.880;2023-03-01T09:35:39;35.95;;;15.60;;
39958;SDS011;25639;53.634;9.880;2023-03-01T09:38:10;30.67;;;13.40;;
39958;SDS011;25639;53.634;9.880;2023-03-01T09:40:36;32.20;;;14.57;;
39958;SDS011;25639;53.634;9.880;2023-03-01T09:43:11;27.67;;;14.60;;
39958;SDS011;25639;53.634;9.880;2023-03-01T09:45:44;27.75;;;13.98;;
39958;SDS011;25639;53.634;9.880;2023-03-01T09:48:16;24.23;;;12.65;;
39958;SDS011;25639;53.634;9.880;2023-03-01T09:50:43;24.45;;;12.48;;
39958;SDS011;25639;53.634;9.880;2023-03-01T09:53:15;22.60;;;12.23;;
39958;SDS011;25639;53.634;9.880;2023-03-01T09:58:25;24.33;;;12.65;;
39958;SDS011;25639;53.634;9.880;2023-03-01T10:00:52;24.52;;;12.27;;
39958;SDS011;25639;53.634;9.880;2023-03-01T10:06:06;19.92;;;9.88;;
39958;SDS011;25639;53.634;9.880;2023-03-01T10:08:48;20.63;;;11.55;;
39958;SDS011;25639;53.634;9.880;2023-03-01T10:11:26;19.10;;;10.55;;
39958;SDS011;25639;53.634;9.880;2023-03-01T10:19:27;17.60;;;9.40;;
39958;SDS011;25639;53.634;9.880;2023-03-01T10:22:09;17.88;;;10.15;;
39958;SDS011;25639;53.634;9.880;2023-03-01T10:24:57;21.75;;;10.75;;
39958;SDS011;25639;53.634;9.880;2023-03-01T10:27:25;20.27;;;10.15;;
39958;SDS011;25639;53.634;9.880;2023-03-01T10:32:45;15.68;;;9.50;;
39958;SDS011;25639;53.634;9.880;2023-03-01T10:35:18;16.35;;;8.85;;
39958;SDS011;25639;53.634;9.880;2023-03-01T10:37:57;17.42;;;9.32;;
39958;SDS011;25639;53.634;9.880;2023-03-01T10:40:41;16.85;;;8.75;;
39958;SDS011;25639;53.634;9.880;2023-03-01T10:43:17;18.48;;;8.23;;
39958;SDS011;25639;53.634;9.880;2023-03-01T10:45:42;19.60;;;8.40;;
39958;SDS011;25639;53.634;9.880;2023-03-01T10:50:33;17.85;;;8.50;;
39958;SDS011;25639;53.634;9.880;2023-03-01T10:53:00;16.95;;;8.20;;
39958;SDS011;25639;53.634;9.880;2023-03-01T10:55:34;17.13;;;8.45;;
39958;SDS011;25639;53.634;9.880;2023-03-01T10:58:08;18.88;;;8.93;;
39958;SDS011;25639;53.634;9.880;2023-03-01T11:00:56;18.05;;;8.55;;
39958;SDS011;25639;53.634;9.880;2023-03-01T11:03:24;16.67;;;8.32;;
39958;SDS011;25639;53.634;9.880;2023-03-01T11:08:41;19.45;;;8.05;;
39958;SDS011;25639;53.634;9.880;2023-03-01T11:13:47;17.45;;;8.25;;
39958;SDS011;25639;53.634;9.880;2023-03-01T11:16:24;15.90;;;7.65;;
39958;SDS011;25639;53.634;9.880;2023-03-01T11:24:00;14.73;;;8.10;;
39958;SDS011;25639;53.634;9.880;2023-03-01T11:26:27;20.35;;;7.93;;
39958;SDS011;25639;53.634;9.880;2023-03-01T11:28:56;15.77;;;7.97;;
39958;SDS011;25639;53.634;9.880;2023-03-01T11:31:27;16.42;;;7.97;;
39958;SDS011;25639;53.634;9.880;2023-03-01T11:33:55;13.40;;;7.93;;
39958;SDS011;25639;53.634;9.880;2023-03-01T11:39:12;15.15;;;8.13;;
39958;SDS011;25639;53.634;9.880;2023-03-01T11:41:39;16.42;;;8.80;;
39958;SDS011;25639;53.634;9.880;2023-03-01T12:00:39;18.42;;;10.15;;
39958;SDS011;25639;53.634;9.880;2023-03-01T12:22:35;20.42;;;10.52;;
39958;SDS011;25639;53.634;9.880;2023-03-01T12:27:40;19.25;;;10.93;;
39958;SDS011;25639;53.634;9.880;2023-03-01T12:38:41;20.20;;;9.32;;
39958;SDS011;25639;53.634;9.880;2023-03-01T12:41:17;19.95;;;9.77;;
39958;SDS011;25639;53.634;9.880;2023-03-01T12:47:19;15.88;;;8.63;;
39958;SDS011;25639;53.634;9.880;2023-03-01T12:50:10;15.50;;;8.73;;
39958;SDS011;25639;53.634;9.880;2023-03-01T12:52:41;17.27;;;10.00;;
39958;SDS011;25639;53.634;9.880;2023-03-01T12:55:16;19.33;;;10.20;;
39958;SDS011;25639;53.634;9.880;2023-03-01T12:57:54;16.60;;;9.32;;
39958;SDS011;25639;53.634;9.880;2023-03-01T13:00:36;17.42;;;10.43;;
39958;SDS011;25639;53.634;9.880;2023-03-01T13:03:13;18.10;;;9.45;;
39958;SDS011;25639;53.634;9.880;2023-03-01T13:08:20;17.63;;;9.38;;
39958;SDS011;25639;53.634;9.880;2023-03-01T13:10:56;19.90;;;9.43;;
39958;SDS011;25639;53.634;9.880;2023-03-01T13:13:26;16.95;;;9.52;;
39958;SDS011;25639;53.634;9.880;2023-03-01T13:15:53;19.38;;;9.18;;
39958;SDS011;25639;53.634;9.880;2023-03-01T13:18:27;18.08;;;9.60;;
39958;SDS011;25639;53.634;9.880;2023-03-01T13:20:56;18.73;;;9.40;;
39958;SDS011;25639;53.634;9.880;2023-03-01T13:23:26;17.50;;;9.10;;
39958;SDS011;25639;53.634;9.880;2023-03-01T13:31:00;21.05;;;10.27;;
39958;SDS011;25639;53.634;9.880;2023-03-01T13:35:53;14.30;;;7.35;;
39958;SDS011;25639;53.634;9.880;2023-03-01T13:57:40;14.38;;;7.80;;
39958;SDS011;25639;53.634;9.880;2023-03-01T14:00:24;16.17;;;7.25;;
39958;SDS011;25639;53.634;9.880;2023-03-01T14:06:01;15.27;;;7.00;;
39958;SDS011;25639;53.634;9.880;2023-03-01T14:08:37;13.20;;;6.65;;
39958;SDS011;25639;53.634;9.880;2023-03-01T14:16:34;15.20;;;6.25;;
39958;SDS011;25639;53.634;9.880;2023-03-01T14:19:24;10.65;;;6.30;;
39958;SDS011;25639;53.634;9.880;2023-03-01T14:22:10;11.80;;;5.82;;
39958;SDS011;25639;53.634;9.880;2023-03-01T14:24:38;12.90;;;7.15;;
39958;SDS011;25639;53.634;9.880;2023-03-01T14:27:11;13.82;;;6.70;;
39958;SDS011;25639;53.634;9.880;2023-03-01T14:29:38;12.50;;;6.95;;
39958;SDS011;25639;53.634;9.880;2023-03-01T14:34:47;15.25;;;7.68;;
39958;SDS011;25639;53.634;9.880;2023-03-01T14:37:19;15.48;;;8.30;;
39958;SDS011;25639;53.634;9.880;2023-03-01T14:39:46;15.88;;;8.13;;
39958;SDS011;25639;53.634;9.880;2023-03-01T14:42:12;13.63;;;7.15;;
39958;SDS011;25639;53.634;9.880;2023-03-01T14:44:40;16.25;;;8.80;;
39958;SDS011;25639;53.634;9.880;2023-03-01T14:47:10;15.40;;;8.30;;
39958;SDS011;25639;53.634;9.880;2023-03-01T14:49:39;17.40;;;8.38;;
39958;SDS011;25639;53.634;9.880;2023-03-01T14:52:07;17.60;;;8.77;;
39958;SDS011;25639;53.634;9.880;2023-03-01T14:54:43;16.42;;;7.90;;
39958;SDS011;25639;53.634;9.880;2023-03-01T14:57:15;19.17;;;9.43;;
39958;SDS011;25639;53.634;9.880;2023-03-01T14:59:47;17.65;;;8.93;;
39958;SDS011;25639;53.634;9.880;2023-03-01T15:02:16;19.45;;;9.60;;
39958;SDS011;25639;53.634;9.880;2023-03-01T15:04:48;18.35;;;9.82;;
39958;SDS011;25639;53.634;9.880;2023-03-01T15:07:15;21.75;;;10.27;;
39958;SDS011;25639;53.634;9.880;2023-03-01T15:09:41;19.08;;;9.70;;
39958;SDS011;25639;53.634;9.880;2023-03-01T15:15:18;23.05;;;10.48;;
39958;SDS011;25639;53.634;9.880;2023-03-01T15:17:48;21.05;;;10.02;;
39958;SDS011;25639;53.634;9.880;2023-03-01T15:20:18;23.40;;;11.25;;
39958;SDS011;25639;53.634;9.880;2023-03-01T15:22:50;20.77;;;10.77;;
39958;SDS011;25639;53.634;9.880;2023-03-01T15:25:19;21.65;;;11.07;;
39958;SDS011;25639;53.634;9.880;2023-03-01T15:27:48;25.67;;;11.70;;
39958;SDS011;25639;53.634;9.880;2023-03-01T15:30:33;24.58;;;12.10;;
39958;SDS011;25639;53.634;9.880;2023-03-01T15:35:57;23.30;;;11.65;;
39958;SDS011;25639;53.634;9.880;2023-03-01T15:40:53;25.17;;;12.52;;
39958;SDS011;25639;53.634;9.880;2023-03-01T15:43:39;22.42;;;11.60;;
39958;SDS011;25639;53.634;9.880;2023-03-01T15:46:12;24.88;;;12.30;;
39958;SDS011;25639;53.634;9.880;2023-03-01T15:48:50;25.35;;;13.20;;
39958;SDS011;25639;53.634;9.880;2023-03-01T15:51:21;24.85;;;12.15;;
39958;SDS011;25639;53.634;9.880;2023-03-01T15:53:52;22.65;;;11.57;;
39958;SDS011;25639;53.634;9.880;2023-03-01T15:56:18;21.67;;;11.38;;
39958;SDS011;25639;53.634;9.880;2023-03-01T15:58:44;27.90;;;11.88;;
39958;SDS011;25639;53.634;9.880;2023-03-01T16:01:11;23.70;;;11.23;;
39958;SDS011;25639;53.634;9.880;2023-03-01T16:03:39;28.60;;;12.55;;
39958;SDS011;25639;53.634;9.880;2023-03-01T16:06:04;27.08;;;11.68;;
39958;SDS011;25639;53.634;9.880;2023-03-01T16:08:29;26.45;;;13.02;;
39958;SDS011;25639;53.634;9.880;2023-03-01T16:10:54;23.33;;;11.70;;
39958;SDS011;25639;53.634;9.880;2023-03-01T16:13:20;22.00;;;11.27;;
39958;SDS011;25639;53.634;9.880;2023-03-01T16:15:45;24.27;;;10.95;;
39958;SDS011;25639;53.634;9.880;2023-03-01T16:18:10;19.38;;;10.30;;
39958;SDS011;25639;53.634;9.880;2023-03-01T16:20:36;20.88;;;9.60;;
39958;SDS011;25639;53.634;9.880;2023-03-01T16:23:03;20.38;;;9.95;;
39958;SDS011;25639;53.634;9.880;2023-03-01T16:25:30;17.80;;;9.43;;
39958;SDS011;25639;53.634;9.880;2023-03-01T16:27:57;15.63;;;9.05;;
39958;SDS011;25639;53.634;9.880;2023-03-01T16:30:25;16.98;;;9.40;;
39958;SDS011;25639;53.634;9.880;2023-03-01T16:32:50;15.27;;;8.13;;
39958;SDS011;25639;53.634;9.880;2023-03-01T16:35:17;11.90;;;7.00;;
39958;SDS011;25639;53.634;9.880;2023-03-01T16:37:45;14.77;;;7.90;;
39958;SDS011;25639;53.634;9.880;2023-03-01T16:40:17;13.40;;;7.38;;
39958;SDS011;25639;53.634;9.880;2023-03-01T16:42:50;13.55;;;8.00;;
39958;SDS011;25639;53.634;9.880;2023-03-01T16:45:16;14.23;;;7.72;;
39958;SDS011;25639;53.634;9.880;2023-03-01T16:47:42;12.13;;;7.00;;
39958;SDS011;25639;53.634;9.880;2023-03-01T16:50:08;13.05;;;6.95;;
39958;SDS011;25639;53.634;9.880;2023-03-01T16:52:34;14.25;;;6.55;;